地図

経路データ

SID SEASON NUMBER BASIN SUBBASIN NAME ISO_TIME NATURE LAT LON WMO_WIND WMO_PRES WMO_AGENCY TRACK_TYPE DIST2LAND LANDFALL IFLAG USA_AGENCY USA_ATCF_ID USA_LAT USA_LON USA_RECORD USA_STATUS USA_WIND USA_PRES USA_SSHS USA_R34_NE USA_R34_SE USA_R34_SW USA_R34_NW USA_R50_NE USA_R50_SE USA_R50_SW USA_R50_NW USA_R64_NE USA_R64_SE USA_R64_SW USA_R64_NW USA_POCI USA_ROCI USA_RMW USA_EYE TOKYO_LAT TOKYO_LON TOKYO_GRADE TOKYO_WIND TOKYO_PRES TOKYO_R50_DIR TOKYO_R50_LONG TOKYO_R50_SHORT TOKYO_R30_DIR TOKYO_R30_LONG TOKYO_R30_SHORT TOKYO_LAND CMA_LAT CMA_LON CMA_CAT CMA_WIND CMA_PRES HKO_LAT HKO_LON HKO_CAT HKO_WIND HKO_PRES NEWDELHI_LAT NEWDELHI_LON NEWDELHI_GRADE NEWDELHI_WIND NEWDELHI_PRES NEWDELHI_CI NEWDELHI_DP NEWDELHI_POCI REUNION_LAT REUNION_LON REUNION_TYPE REUNION_WIND REUNION_PRES REUNION_TNUM REUNION_CI REUNION_RMW REUNION_R34_NE REUNION_R34_SE REUNION_R34_SW REUNION_R34_NW REUNION_R50_NE REUNION_R50_SE REUNION_R50_SW REUNION_R50_NW REUNION_R64_NE REUNION_R64_SE REUNION_R64_SW REUNION_R64_NW BOM_LAT BOM_LON BOM_TYPE BOM_WIND BOM_PRES BOM_TNUM BOM_CI BOM_RMW BOM_R34_NE BOM_R34_SE BOM_R34_SW BOM_R34_NW BOM_R50_NE BOM_R50_SE BOM_R50_SW BOM_R50_NW BOM_R64_NE BOM_R64_SE BOM_R64_SW BOM_R64_NW BOM_ROCI BOM_POCI BOM_EYE BOM_POS_METHOD BOM_PRES_METHOD NADI_LAT NADI_LON NADI_CAT NADI_WIND NADI_PRES WELLINGTON_LAT WELLINGTON_LON WELLINGTON_WIND WELLINGTON_PRES DS824_LAT DS824_LON DS824_STAGE DS824_WIND DS824_PRES TD9636_LAT TD9636_LON TD9636_STAGE TD9636_WIND TD9636_PRES TD9635_LAT TD9635_LON TD9635_WIND TD9635_PRES TD9635_ROCI NEUMANN_LAT NEUMANN_LON NEUMANN_CLASS NEUMANN_WIND NEUMANN_PRES MLC_LAT MLC_LON MLC_CLASS MLC_WIND MLC_PRES USA_GUST BOM_GUST BOM_GUST_PER REUNION_GUST REUNION_GUST_PER USA_SEAHGT USA_SEARAD_NE USA_SEARAD_SE USA_SEARAD_SW USA_SEARAD_NW STORM_SPEED STORM_DIR
1985219N14254 1985 62 EP MM MARTY 1985-08-06 18:00:00 TS 14.1000 -106.200 25 hurdat_epa main 551 547 O_________O___ hurdat_epa EP131985 14.1000 -106.200 TD 25 -1 14.1000 -106.200 1 25 12 300
1985219N14254 1985 62 EP MM MARTY 1985-08-06 21:00:00 TS 14.4109 -106.748 main 554 552 P_________P___ EP131985 14.4152 -106.747 TD 27 -1 14.3977 -106.752 1 27 12 299
1985219N14254 1985 62 EP MM MARTY 1985-08-07 00:00:00 TS 14.7000 -107.300 30 hurdat_epa main 569 564 O_________O___ hurdat_epa EP131985 14.7000 -107.300 TD 30 -1 14.7000 -107.300 1 30 12 297
1985219N14254 1985 62 EP MM MARTY 1985-08-07 03:00:00 TS 14.9593 -107.853 main 573 573 P_________P___ EP131985 14.9424 -107.858 TD 30 -1 15.0099 -107.838 1 31 12 297
1985219N14254 1985 62 EP MM MARTY 1985-08-07 06:00:00 TS 15.2300 -108.392 30 hurdat_epa main 588 580 O_________P___ hurdat_epa EP131985 15.2000 -108.400 TD 30 -1 15.3201 -108.367 1 32 12 301
1985219N14254 1985 62 EP MM MARTY 1985-08-07 09:00:00 TS 15.5674 -108.902 main 592 592 P_________P___ EP131985 15.5498 -108.907 TD 32 -1 15.6201 -108.888 1 33 12 305
1985219N14254 1985 62 EP MM MARTY 1985-08-07 12:00:00 TS 15.9000 -109.400 35 hurdat_epa main 607 607 O_________O___ hurdat_epa EP131985 15.9000 -109.400 TS 35 0 15.9000 -109.400 2 35 11 302
1985219N14254 1985 62 EP MM MARTY 1985-08-07 15:00:00 TS 16.1700 -109.909 main 624 624 P_________P___ EP131985 16.1724 -109.900 TS 37 0 16.1628 -109.936 2 37 11 297
1985219N14254 1985 62 EP MM MARTY 1985-08-07 18:00:00 TS 16.4006 -110.415 40 hurdat_epa main 653 653 O_________P___ hurdat_epa EP131985 16.4000 -110.400 TS 40 0 16.4025 -110.460 2 40 11 294
1985219N14254 1985 62 EP MM MARTY 1985-08-07 21:00:00 TS 16.6097 -110.936 main 685 685 P_________P___ EP131985 16.6076 -110.930 TS 42 0 16.6160 -110.954 2 42 10 293
1985219N14254 1985 62 EP MM MARTY 1985-08-08 00:00:00 TS 16.8000 -111.400 45 hurdat_epa main 697 683 O_________O___ hurdat_epa EP131985 16.8000 -111.400 TS 45 0 16.8000 -111.400 2 45 9 297
1985219N14254 1985 62 EP MM MARTY 1985-08-08 03:00:00 TS 17.0091 -111.739 main 683 670 P_________P___ EP131985 17.0223 -111.723 TS 47 0 16.9695 -111.788 2 47 7 302
1985219N14254 1985 62 EP MM MARTY 1985-08-08 06:00:00 TS 17.1773 -112.031 50 hurdat_epa main 670 670 O_________P___ hurdat_epa EP131985 17.2000 -112.000 TS 50 0 17.1094 -112.125 2 50 7 293
1985219N14254 1985 62 EP MM MARTY 1985-08-08 09:00:00 TS 17.2649 -112.369 main 674 674 P_________P___ EP131985 17.2800 -112.350 TS 52 0 17.2196 -112.425 2 52 7 281
1985219N14254 1985 62 EP MM MARTY 1985-08-08 12:00:00 TS 17.3000 -112.700 55 hurdat_epa main 686 686 O_________O___ hurdat_epa EP131985 17.3000 -112.700 TS 55 0 17.3000 -112.700 2 55 6 274
1985219N14254 1985 62 EP MM MARTY 1985-08-08 15:00:00 TS 17.3123 -113.009 main 700 700 P_________P___ EP131985 17.3000 -113.023 TS 57 0 17.3494 -112.968 2 57 6 272
1985219N14254 1985 62 EP MM MARTY 1985-08-08 18:00:00 TS 17.3180 -113.279 60 hurdat_epa main 714 714 O_________P___ hurdat_epa EP131985 17.3000 -113.300 TS 60 0 17.3721 -113.215 2 60 5 275
1985219N14254 1985 62 EP MM MARTY 1985-08-08 21:00:00 TS 17.3527 -113.489 main 715 715 P_________P___ EP131985 17.3424 -113.500 TS 62 0 17.3838 -113.455 2 62 4 282
1985219N14254 1985 62 EP MM MARTY 1985-08-09 00:00:00 TS 17.4000 -113.700 65 hurdat_epa main 726 726 O_________O___ hurdat_epa EP131985 17.4000 -113.700 HU 65 1 17.4000 -113.700 3 65 5 281
1985219N14254 1985 62 EP MM MARTY 1985-08-09 03:00:00 TS 17.4451 -113.981 main 743 734 P_________P___ EP131985 17.4500 -113.993 HU 65 1 17.4303 -113.948 3 65 6 280
1985219N14254 1985 62 EP MM MARTY 1985-08-09 06:00:00 TS 17.4924 -114.276 65 hurdat_epa main 752 752 O_________P___ hurdat_epa EP131985 17.5000 -114.300 HU 65 1 17.4696 -114.205 3 65 5 280
1985219N14254 1985 62 EP MM MARTY 1985-08-09 09:00:00 TS 17.5378 -114.528 main 764 762 P_________P___ EP131985 17.5424 -114.543 HU 65 1 17.5240 -114.485 3 65 5 282
1985219N14254 1985 62 EP MM MARTY 1985-08-09 12:00:00 TS 17.6000 -114.800 65 hurdat_epa main 775 775 O_________O___ hurdat_epa EP131985 17.6000 -114.800 HU 65 1 17.6000 -114.800 4 65 6 285
1985219N14254 1985 62 EP MM MARTY 1985-08-09 15:00:00 TS 17.6886 -115.132 main 787 787 P_________P___ EP131985 17.6849 -115.120 HU 62 0 17.6995 -115.168 4 62 7 287
1985219N14254 1985 62 EP MM MARTY 1985-08-09 18:00:00 TS 17.8050 -115.517 60 hurdat_epa main 808 808 O_________P___ hurdat_epa EP131985 17.8000 -115.500 TS 60 0 17.8202 -115.570 4 60 8 288
1985219N14254 1985 62 EP MM MARTY 1985-08-09 21:00:00 TS 17.9459 -115.959 main 838 831 P_________P___ EP131985 17.9426 -115.950 TS 57 0 17.9557 -115.987 4 57 9 289
1985219N14254 1985 62 EP MM MARTY 1985-08-10 00:00:00 TS 18.1000 -116.400 55 hurdat_epa main 855 855 O_________O___ hurdat_epa EP131985 18.1000 -116.400 TS 55 0 18.1000 -116.400 2 55 8 292
1985219N14254 1985 62 EP MM MARTY 1985-08-10 03:00:00 TS 18.2469 -116.761 main 873 864 P_________P___ EP131985 18.2498 -116.758 TS 52 0 18.2383 -116.770 2 55 7 294
1985219N14254 1985 62 EP MM MARTY 1985-08-10 06:00:00 TS 18.3961 -117.109 50 hurdat_epa main 873 873 O_________P___ hurdat_epa EP131985 18.4000 -117.100 TS 50 0 18.3843 -117.135 2 55 8 293
1985219N14254 1985 62 EP MM MARTY 1985-08-10 09:00:00 TS 18.5470 -117.491 main 889 880 P_________P___ EP131985 18.5499 -117.485 TS 52 0 18.5382 -117.508 2 55 8 292
1985219N14254 1985 62 EP MM MARTY 1985-08-10 12:00:00 TS 18.7000 -117.900 55 hurdat_epa main 899 899 O_________O___ hurdat_epa EP131985 18.7000 -117.900 TS 55 0 18.7000 -117.900 2 55 9 290
1985219N14254 1985 62 EP MM MARTY 1985-08-10 15:00:00 TS 18.8457 -118.339 main 918 918 P_________P___ EP131985 18.8424 -118.343 TS 55 0 18.8555 -118.329 2 55 9 290
1985219N14254 1985 62 EP MM MARTY 1985-08-10 18:00:00 TS 19.0050 -118.795 55 hurdat_epa main 939 939 O_________P___ hurdat_epa EP131985 19.0000 -118.800 TS 55 0 19.0199 -118.778 2 55 9 292
1985219N14254 1985 62 EP MM MARTY 1985-08-10 21:00:00 TS 19.1885 -119.253 main 962 962 P_________P___ EP131985 19.1849 -119.258 TS 55 0 19.1993 -119.238 2 55 9 295
1985219N14254 1985 62 EP MM MARTY 1985-08-11 00:00:00 TS 19.4000 -119.700 55 hurdat_epa main 979 979 O_________O___ hurdat_epa EP131985 19.4000 -119.700 TS 55 0 19.4000 -119.700 2 55 9 299
1985219N14254 1985 62 EP MM MARTY 1985-08-11 03:00:00 TS 19.6387 -120.104 main 999 992 P_________P___ EP131985 19.6423 -120.093 TS 52 0 19.6279 -120.138 2 53 9 303
1985219N14254 1985 62 EP MM MARTY 1985-08-11 06:00:00 TS 19.8942 -120.519 50 hurdat_epa main 1013 1013 O_________P___ hurdat_epa EP131985 19.9000 -120.500 TS 50 0 19.8767 -120.578 2 52 10 301
1985219N14254 1985 62 EP MM MARTY 1985-08-11 09:00:00 TS 20.1467 -120.990 main 1039 1030 P_________P___ EP131985 20.1499 -120.978 TS 50 0 20.1372 -121.029 2 51 11 299
1985219N14254 1985 62 EP MM MARTY 1985-08-11 12:00:00 TS 20.4000 -121.500 50 hurdat_epa main 1047 1046 O_________O___ hurdat_epa EP131985 20.4000 -121.500 TS 50 0 20.4000 -121.500 2 50 11 297
1985219N14254 1985 62 EP MM MARTY 1985-08-11 15:00:00 TS 20.6510 -122.041 main 1055 1055 P_________P___ EP131985 20.6500 -122.050 TS 50 0 20.6541 -122.012 2 50 11 296
1985219N14254 1985 62 EP MM MARTY 1985-08-11 18:00:00 TS 20.9019 -122.586 50 hurdat_epa main 1081 1080 O_________P___ hurdat_epa EP131985 20.9000 -122.600 TS 50 0 20.9075 -122.543 2 50 11 297
1985219N14254 1985 62 EP MM MARTY 1985-08-11 21:00:00 TS 21.1516 -123.100 main 1094 1094 P_________P___ EP131985 21.1498 -123.108 TS 50 0 21.1572 -123.077 2 50 11 298
1985219N14254 1985 62 EP MM MARTY 1985-08-12 00:00:00 TS 21.4000 -123.600 50 hurdat_epa main 1117 1117 O_________O___ hurdat_epa EP131985 21.4000 -123.600 TS 50 0 21.4000 -123.600 2 50 11 298
1985219N14254 1985 62 EP MM MARTY 1985-08-12 03:00:00 TS 21.6440 -124.112 main 1143 1136 P_________P___ EP131985 21.6574 -124.108 TS 47 0 21.6038 -124.127 2 48 11 297
1985219N14254 1985 62 EP MM MARTY 1985-08-12 06:00:00 TS 21.8763 -124.608 45 hurdat_epa main 1164 1164 O_________P___ hurdat_epa EP131985 21.9000 -124.600 TS 45 0 21.8051 -124.633 2 47 10 295
1985219N14254 1985 62 EP MM MARTY 1985-08-12 09:00:00 TS 22.0710 -125.085 main 1194 1194 P_________P___ EP131985 22.0850 -125.080 TS 45 0 22.0289 -125.098 2 46 9 297
1985219N14254 1985 62 EP MM MARTY 1985-08-12 12:00:00 TS 22.3000 -125.500 45 hurdat_epa main 1216 1216 O_________O___ hurdat_epa EP131985 22.3000 -125.500 TS 45 0 22.3000 -125.500 2 45 9 308
1985219N14254 1985 62 EP MM MARTY 1985-08-12 15:00:00 TS 22.6195 -125.834 main 1225 1223 P_________P___ EP131985 22.6124 -125.838 TS 40 0 22.6409 -125.823 2 41 9 322
1985219N14254 1985 62 EP MM MARTY 1985-08-12 18:00:00 TS 23.0079 -126.096 35 hurdat_epa main 1231 1225 O_________P___ hurdat_epa EP131985 23.0000 -126.100 TS 35 0 23.0317 -126.083 2 37 9 332
1985219N14254 1985 62 EP MM MARTY 1985-08-12 21:00:00 TS 23.4403 -126.306 main 1229 1220 P_________P___ EP131985 23.4349 -126.308 TS 32 -1 23.4567 -126.301 2 33 10 337
1985219N14254 1985 62 EP MM MARTY 1985-08-13 00:00:00 TS 23.9000 -126.500 30 hurdat_epa main 1225 1221 O_________O___ hurdat_epa EP131985 23.9000 -126.500 TD 30 -1 23.9000 -126.500 1 30 10 336
1985219N14254 1985 62 EP MM MARTY 1985-08-13 03:00:00 TS 24.3438 -126.749 main 1227 1227 P_________P___ EP131985 24.3501 -126.757 TD 30 -1 24.3252 -126.725 1 30 10 334
1985219N14254 1985 62 EP MM MARTY 1985-08-13 06:00:00 TS 24.7915 -126.984 30 hurdat_epa main 1238 1206 O_________P___ hurdat_epa EP131985 24.8000 -127.000 TD 30 -1 24.7658 -126.934 1 30 10 338
1985219N14254 1985 62 EP MM MARTY 1985-08-13 09:00:00 TS 25.2377 -127.156 main 1212 1169 P_________P___ EP131985 25.2424 -127.165 TD 30 -1 25.2235 -127.127 1 30 10 343
1985219N14254 1985 62 EP MM MARTY 1985-08-13 12:00:00 TS 25.7000 -127.300 30 hurdat_epa main 1169 1128 O_________O___ hurdat_epa EP131985 25.7000 -127.300 TD 30 -1 25.7000 -127.300 1 30 10 345
1985219N14254 1985 62 EP MM MARTY 1985-08-13 15:00:00 TS 26.1913 -127.447 main 1128 1094 P_________P___ EP131985 26.1901 -127.445 TD 27 -1 26.1949 -127.455 1 27 10 345
1985219N14254 1985 62 EP MM MARTY 1985-08-13 18:00:00 TS 26.7000 -127.600 25 hurdat_epa main 1094 O_________O___ hurdat_epa EP131985 26.7000 -127.600 TD 25 -1 26.7000 -127.600 1 25 11 345

IBTrACS Databaseについて

本データベースは、米国NOAAが公開する1842年以降の世界の熱帯低気圧のベストトラックデータアーカイブInternational Best Track Archive for Climate Stewardship (IBTrACS)を、ウェブで閲覧しやすい形式に変換したものです。

最終更新日:2021-10-08